sensor_id;sensor_type;location;lat;lon;timestamp;temperature;humidity
37456;DHT22;23316;50.718;7.328;2023-04-03T00:00:43;8.00;49.40
37456;DHT22;23316;50.718;7.328;2023-04-03T00:03:10;7.90;49.40
37456;DHT22;23316;50.718;7.328;2023-04-03T00:05:37;7.90;49.60
37456;DHT22;23316;50.718;7.328;2023-04-03T00:08:05;7.90;49.60
37456;DHT22;23316;50.718;7.328;2023-04-03T00:10:34;7.90;49.70
37456;DHT22;23316;50.718;7.328;2023-04-03T00:13:03;7.80;49.80
37456;DHT22;23316;50.718;7.328;2023-04-03T00:15:31;7.80;50.00
37456;DHT22;23316;50.718;7.328;2023-04-03T00:17:58;7.80;50.00
37456;DHT22;23316;50.718;7.328;2023-04-03T00:20:26;7.80;49.90
37456;DHT22;23316;50.718;7.328;2023-04-03T00:22:54;7.80;50.10
37456;DHT22;23316;50.718;7.328;2023-04-03T00:25:21;7.80;50.10
37456;DHT22;23316;50.718;7.328;2023-04-03T00:27:49;7.70;50.00
37456;DHT22;23316;50.718;7.328;2023-04-03T00:30:19;7.70;49.80
37456;DHT22;23316;50.718;7.328;2023-04-03T00:32:47;7.70;49.70
37456;DHT22;23316;50.718;7.328;2023-04-03T00:35:15;7.80;49.90
37456;DHT22;23316;50.718;7.328;2023-04-03T00:37:43;7.80;50.00
37456;DHT22;23316;50.718;7.328;2023-04-03T00:40:12;7.80;50.00
37456;DHT22;23316;50.718;7.328;2023-04-03T00:42:40;7.80;50.10
37456;DHT22;23316;50.718;7.328;2023-04-03T00:45:30;7.80;50.10
37456;DHT22;23316;50.718;7.328;2023-04-03T00:47:58;7.90;50.20
37456;DHT22;23316;50.718;7.328;2023-04-03T00:50:27;7.90;50.20
37456;DHT22;23316;50.718;7.328;2023-04-03T00:52:55;8.00;50.20
37456;DHT22;23316;50.718;7.328;2023-04-03T00:55:23;8.00;50.10
37456;DHT22;23316;50.718;7.328;2023-04-03T00:57:51;8.00;50.00
37456;DHT22;23316;50.718;7.328;2023-04-03T01:00:22;8.00;50.00
37456;DHT22;23316;50.718;7.328;2023-04-03T01:02:51;8.10;50.00
37456;DHT22;23316;50.718;7.328;2023-04-03T01:05:19;8.10;50.00
37456;DHT22;23316;50.718;7.328;2023-04-03T01:07:47;8.10;50.50
37456;DHT22;23316;50.718;7.328;2023-04-03T01:10:17;8.10;49.90
37456;DHT22;23316;50.718;7.328;2023-04-03T01:12:46;8.10;49.90
37456;DHT22;23316;50.718;7.328;2023-04-03T01:15:15;8.10;49.90
37456;DHT22;23316;50.718;7.328;2023-04-03T01:17:46;8.10;49.90
37456;DHT22;23316;50.718;7.328;2023-04-03T01:20:37;8.20;50.00
37456;DHT22;23316;50.718;7.328;2023-04-03T01:23:19;8.20;50.10
37456;DHT22;23316;50.718;7.328;2023-04-03T01:25:50;8.20;50.10
37456;DHT22;23316;50.718;7.328;2023-04-03T01:28:21;8.20;50.10
37456;DHT22;23316;50.718;7.328;2023-04-03T01:30:53;8.20;50.10
37456;DHT22;23316;50.718;7.328;2023-04-03T01:33:24;8.20;50.10
37456;DHT22;23316;50.718;7.328;2023-04-03T01:35:52;8.20;50.10
37456;DHT22;23316;50.718;7.328;2023-04-03T01:38:19;8.20;50.10
37456;DHT22;23316;50.718;7.328;2023-04-03T01:40:46;8.20;50.10
37456;DHT22;23316;50.718;7.328;2023-04-03T01:43:14;8.10;50.10
37456;DHT22;23316;50.718;7.328;2023-04-03T01:45:41;8.10;50.10
37456;DHT22;23316;50.718;7.328;2023-04-03T01:48:08;8.10;50.20
37456;DHT22;23316;50.718;7.328;2023-04-03T01:50:37;8.20;50.30
37456;DHT22;23316;50.718;7.328;2023-04-03T01:53:04;8.10;50.30
37456;DHT22;23316;50.718;7.328;2023-04-03T01:55:31;8.10;50.30
37456;DHT22;23316;50.718;7.328;2023-04-03T01:57:59;8.10;50.30
37456;DHT22;23316;50.718;7.328;2023-04-03T02:00:26;8.20;50.40
37456;DHT22;23316;50.718;7.328;2023-04-03T02:02:53;8.20;50.30
37456;DHT22;23316;50.718;7.328;2023-04-03T02:05:21;8.10;50.30
37456;DHT22;23316;50.718;7.328;2023-04-03T02:07:49;8.10;50.20
37456;DHT22;23316;50.718;7.328;2023-04-03T02:10:17;8.10;50.30
37456;DHT22;23316;50.718;7.328;2023-04-03T02:12:44;8.10;50.30
37456;DHT22;23316;50.718;7.328;2023-04-03T02:15:11;8.10;50.40
37456;DHT22;23316;50.718;7.328;2023-04-03T02:17:39;8.10;50.50
37456;DHT22;23316;50.718;7.328;2023-04-03T02:20:07;8.10;50.50
37456;DHT22;23316;50.718;7.328;2023-04-03T02:22:34;8.00;50.50
37456;DHT22;23316;50.718;7.328;2023-04-03T02:25:04;8.00;50.50
37456;DHT22;23316;50.718;7.328;2023-04-03T02:27:31;8.00;50.50
37456;DHT22;23316;50.718;7.328;2023-04-03T02:29:58;8.00;50.50
37456;DHT22;23316;50.718;7.328;2023-04-03T02:32:25;8.00;50.50
37456;DHT22;23316;50.718;7.328;2023-04-03T02:34:53;8.00;50.40
37456;DHT22;23316;50.718;7.328;2023-04-03T02:37:20;7.90;50.40
37456;DHT22;23316;50.718;7.328;2023-04-03T02:39:47;7.90;50.40
37456;DHT22;23316;50.718;7.328;2023-04-03T02:42:16;7.90;50.40
37456;DHT22;23316;50.718;7.328;2023-04-03T02:44:43;7.80;50.30
37456;DHT22;23316;50.718;7.328;2023-04-03T02:47:11;7.80;50.20
37456;DHT22;23316;50.718;7.328;2023-04-03T02:49:38;7.80;50.20
37456;DHT22;23316;50.718;7.328;2023-04-03T02:52:05;7.80;50.20
37456;DHT22;23316;50.718;7.328;2023-04-03T02:54:32;7.70;50.20
37456;DHT22;23316;50.718;7.328;2023-04-03T02:57:00;7.70;50.20
37456;DHT22;23316;50.718;7.328;2023-04-03T02:59:28;7.70;50.30
37456;DHT22;23316;50.718;7.328;2023-04-03T03:01:56;7.70;50.20
37456;DHT22;23316;50.718;7.328;2023-04-03T03:04:23;7.60;50.10
37456;DHT22;23316;50.718;7.328;2023-04-03T03:06:50;7.60;50.60
37456;DHT22;23316;50.718;7.328;2023-04-03T03:09:18;7.60;50.10
37456;DHT22;23316;50.718;7.328;2023-04-03T03:11:45;7.60;50.10
37456;DHT22;23316;50.718;7.328;2023-04-03T03:14:12;7.50;50.20
37456;DHT22;23316;50.718;7.328;2023-04-03T03:16:41;7.50;50.20
37456;DHT22;23316;50.718;7.328;2023-04-03T03:19:08;7.40;50.20
37456;DHT22;23316;50.718;7.328;2023-04-03T03:21:36;7.40;50.20
37456;DHT22;23316;50.718;7.328;2023-04-03T03:24:03;7.30;50.20
37456;DHT22;23316;50.718;7.328;2023-04-03T03:26:31;7.30;50.40
37456;DHT22;23316;50.718;7.328;2023-04-03T03:28:58;7.30;50.60
37456;DHT22;23316;50.718;7.328;2023-04-03T03:31:25;7.20;50.60
37456;DHT22;23316;50.718;7.328;2023-04-03T03:33:54;7.20;50.60
37456;DHT22;23316;50.718;7.328;2023-04-03T03:36:21;7.20;50.70
37456;DHT22;23316;50.718;7.328;2023-04-03T03:38:48;7.10;50.60
37456;DHT22;23316;50.718;7.328;2023-04-03T03:41:16;7.10;50.60
37456;DHT22;23316;50.718;7.328;2023-04-03T03:43:43;7.10;50.70
37456;DHT22;23316;50.718;7.328;2023-04-03T03:46:10;7.10;50.80
37456;DHT22;23316;50.718;7.328;2023-04-03T03:48:37;7.00;50.80
37456;DHT22;23316;50.718;7.328;2023-04-03T03:51:06;7.00;50.90
37456;DHT22;23316;50.718;7.328;2023-04-03T03:53:33;7.00;51.00
37456;DHT22;23316;50.718;7.328;2023-04-03T03:56:01;6.90;50.80
37456;DHT22;23316;50.718;7.328;2023-04-03T03:58:28;6.80;50.80
37456;DHT22;23316;50.718;7.328;2023-04-03T04:00:55;6.80;50.90
37456;DHT22;23316;50.718;7.328;2023-04-03T04:03:23;6.80;51.00
37456;DHT22;23316;50.718;7.328;2023-04-03T04:05:50;6.80;51.00
37456;DHT22;23316;50.718;7.328;2023-04-03T04:08:19;6.80;51.10
37456;DHT22;23316;50.718;7.328;2023-04-03T04:10:46;6.80;51.20
37456;DHT22;23316;50.718;7.328;2023-04-03T04:13:13;6.70;51.20
37456;DHT22;23316;50.718;7.328;2023-04-03T04:15:41;6.80;51.20
37456;DHT22;23316;50.718;7.328;2023-04-03T04:18:08;6.80;51.30
37456;DHT22;23316;50.718;7.328;2023-04-03T04:20:36;6.70;51.20
37456;DHT22;23316;50.718;7.328;2023-04-03T04:23:03;6.70;51.30
37456;DHT22;23316;50.718;7.328;2023-04-03T04:25:31;6.70;51.30
37456;DHT22;23316;50.718;7.328;2023-04-03T04:27:59;6.80;51.30
37456;DHT22;23316;50.718;7.328;2023-04-03T04:30:26;6.80;51.30
37456;DHT22;23316;50.718;7.328;2023-04-03T04:32:54;6.70;51.20
37456;DHT22;23316;50.718;7.328;2023-04-03T04:35:22;6.80;51.20
37456;DHT22;23316;50.718;7.328;2023-04-03T04:37:49;6.80;51.10
37456;DHT22;23316;50.718;7.328;2023-04-03T04:40:16;6.70;51.10
37456;DHT22;23316;50.718;7.328;2023-04-03T04:42:45;6.70;51.00
37456;DHT22;23316;50.718;7.328;2023-04-03T04:45:13;6.70;50.90
37456;DHT22;23316;50.718;7.328;2023-04-03T04:47:42;6.70;50.90
37456;DHT22;23316;50.718;7.328;2023-04-03T04:50:10;6.70;50.90
37456;DHT22;23316;50.718;7.328;2023-04-03T04:52:37;6.70;50.90
37456;DHT22;23316;50.718;7.328;2023-04-03T04:55:05;6.70;50.80
37456;DHT22;23316;50.718;7.328;2023-04-03T04:57:33;6.60;50.70
37456;DHT22;23316;50.718;7.328;2023-04-03T05:00:02;6.70;50.80
37456;DHT22;23316;50.718;7.328;2023-04-03T05:02:30;6.60;50.70
37456;DHT22;23316;50.718;7.328;2023-04-03T05:04:57;6.60;50.70
37456;DHT22;23316;50.718;7.328;2023-04-03T05:07:25;6.60;50.60
37456;DHT22;23316;50.718;7.328;2023-04-03T05:09:52;6.60;50.70
37456;DHT22;23316;50.718;7.328;2023-04-03T05:12:19;6.60;50.70
37456;DHT22;23316;50.718;7.328;2023-04-03T05:14:46;6.60;50.60
37456;DHT22;23316;50.718;7.328;2023-04-03T05:17:15;6.60;50.70
37456;DHT22;23316;50.718;7.328;2023-04-03T05:19:42;6.50;50.60
37456;DHT22;23316;50.718;7.328;2023-04-03T05:22:09;6.50;50.70
37456;DHT22;23316;50.718;7.328;2023-04-03T05:24:37;6.50;50.70
37456;DHT22;23316;50.718;7.328;2023-04-03T05:27:04;6.50;50.80
37456;DHT22;23316;50.718;7.328;2023-04-03T05:29:31;6.50;50.80
37456;DHT22;23316;50.718;7.328;2023-04-03T05:31:59;6.50;50.90
37456;DHT22;23316;50.718;7.328;2023-04-03T05:34:27;6.50;50.90
37456;DHT22;23316;50.718;7.328;2023-04-03T05:36:54;6.50;50.90
37456;DHT22;23316;50.718;7.328;2023-04-03T05:39:22;6.50;51.00
37456;DHT22;23316;50.718;7.328;2023-04-03T05:41:50;6.50;51.10
37456;DHT22;23316;50.718;7.328;2023-04-03T05:44:18;6.60;51.00
37456;DHT22;23316;50.718;7.328;2023-04-03T05:46:45;6.50;51.00
37456;DHT22;23316;50.718;7.328;2023-04-03T05:49:13;6.50;50.90
37456;DHT22;23316;50.718;7.328;2023-04-03T05:51:42;6.60;51.00
37456;DHT22;23316;50.718;7.328;2023-04-03T05:54:13;6.60;51.00
37456;DHT22;23316;50.718;7.328;2023-04-03T05:56:43;6.60;51.00
37456;DHT22;23316;50.718;7.328;2023-04-03T05:59:11;6.60;51.10
37456;DHT22;23316;50.718;7.328;2023-04-03T06:01:39;6.60;51.10
37456;DHT22;23316;50.718;7.328;2023-04-03T06:04:06;6.60;51.10
37456;DHT22;23316;50.718;7.328;2023-04-03T06:06:47;6.70;51.20
37456;DHT22;23316;50.718;7.328;2023-04-03T06:09:15;6.70;51.10
37456;DHT22;23316;50.718;7.328;2023-04-03T06:11:43;6.70;51.20
37456;DHT22;23316;50.718;7.328;2023-04-03T06:14:11;6.70;51.20
37456;DHT22;23316;50.718;7.328;2023-04-03T06:16:38;6.70;51.20
37456;DHT22;23316;50.718;7.328;2023-04-03T06:19:06;6.80;51.20
37456;DHT22;23316;50.718;7.328;2023-04-03T06:21:34;6.80;51.10
37456;DHT22;23316;50.718;7.328;2023-04-03T06:24:03;6.80;51.10
37456;DHT22;23316;50.718;7.328;2023-04-03T06:26:31;6.80;51.10
37456;DHT22;23316;50.718;7.328;2023-04-03T06:28:59;6.90;51.10
37456;DHT22;23316;50.718;7.328;2023-04-03T06:31:26;6.90;51.00
37456;DHT22;23316;50.718;7.328;2023-04-03T06:33:53;6.90;51.00
37456;DHT22;23316;50.718;7.328;2023-04-03T06:36:21;6.90;51.00
37456;DHT22;23316;50.718;7.328;2023-04-03T06:38:48;7.00;51.00
37456;DHT22;23316;50.718;7.328;2023-04-03T06:41:17;7.00;50.80
37456;DHT22;23316;50.718;7.328;2023-04-03T06:43:44;7.10;50.90
37456;DHT22;23316;50.718;7.328;2023-04-03T06:46:14;7.10;51.00
37456;DHT22;23316;50.718;7.328;2023-04-03T06:48:43;7.10;51.00
37456;DHT22;23316;50.718;7.328;2023-04-03T06:51:21;7.10;50.90
37456;DHT22;23316;50.718;7.328;2023-04-03T06:53:49;7.20;50.80
37456;DHT22;23316;50.718;7.328;2023-04-03T06:56:19;7.20;50.60
37456;DHT22;23316;50.718;7.328;2023-04-03T06:58:46;7.20;50.40
37456;DHT22;23316;50.718;7.328;2023-04-03T07:01:15;7.20;50.50
37456;DHT22;23316;50.718;7.328;2023-04-03T07:03:43;7.30;50.50
37456;DHT22;23316;50.718;7.328;2023-04-03T07:06:12;7.30;50.40
37456;DHT22;23316;50.718;7.328;2023-04-03T07:08:39;7.40;50.60
37456;DHT22;23316;50.718;7.328;2023-04-03T07:11:08;7.40;50.50
37456;DHT22;23316;50.718;7.328;2023-04-03T07:13:38;7.40;50.40
37456;DHT22;23316;50.718;7.328;2023-04-03T07:16:06;7.50;50.40
37456;DHT22;23316;50.718;7.328;2023-04-03T07:18:33;7.50;50.20
37456;DHT22;23316;50.718;7.328;2023-04-03T07:21:01;7.50;50.20
37456;DHT22;23316;50.718;7.328;2023-04-03T07:23:28;7.50;50.10
37456;DHT22;23316;50.718;7.328;2023-04-03T07:25:56;7.60;50.10
37456;DHT22;23316;50.718;7.328;2023-04-03T07:28:23;7.60;50.10
37456;DHT22;23316;50.718;7.328;2023-04-03T07:30:53;7.70;50.00
37456;DHT22;23316;50.718;7.328;2023-04-03T07:33:22;7.70;50.10
37456;DHT22;23316;50.718;7.328;2023-04-03T07:35:49;7.70;50.60
37456;DHT22;23316;50.718;7.328;2023-04-03T07:38:17;7.80;50.10
37456;DHT22;23316;50.718;7.328;2023-04-03T07:40:46;7.80;50.00
37456;DHT22;23316;50.718;7.328;2023-04-03T07:43:14;7.90;49.90
37456;DHT22;23316;50.718;7.328;2023-04-03T07:45:41;7.90;49.70
37456;DHT22;23316;50.718;7.328;2023-04-03T07:48:11;7.90;49.50
37456;DHT22;23316;50.718;7.328;2023-04-03T07:50:40;7.90;49.40
37456;DHT22;23316;50.718;7.328;2023-04-03T07:53:07;8.00;49.40
37456;DHT22;23316;50.718;7.328;2023-04-03T07:55:35;8.00;49.30
37456;DHT22;23316;50.718;7.328;2023-04-03T07:58:08;8.00;49.20
37456;DHT22;23316;50.718;7.328;2023-04-03T08:00:37;8.10;48.90
37456;DHT22;23316;50.718;7.328;2023-04-03T08:03:04;8.10;48.70
37456;DHT22;23316;50.718;7.328;2023-04-03T08:05:36;8.10;48.80
37456;DHT22;23316;50.718;7.328;2023-04-03T08:08:03;8.10;48.70
37456;DHT22;23316;50.718;7.328;2023-04-03T08:10:31;8.10;48.70
37456;DHT22;23316;50.718;7.328;2023-04-03T08:12:58;8.10;48.80
37456;DHT22;23316;50.718;7.328;2023-04-03T08:15:26;8.10;48.80
37456;DHT22;23316;50.718;7.328;2023-04-03T08:17:53;8.20;48.90
37456;DHT22;23316;50.718;7.328;2023-04-03T08:20:21;8.20;48.80
37456;DHT22;23316;50.718;7.328;2023-04-03T08:22:49;8.20;48.80
37456;DHT22;23316;50.718;7.328;2023-04-03T08:25:17;8.20;48.80
37456;DHT22;23316;50.718;7.328;2023-04-03T08:27:44;8.20;48.80
37456;DHT22;23316;50.718;7.328;2023-04-03T08:30:12;8.30;48.90
37456;DHT22;23316;50.718;7.328;2023-04-03T08:32:40;8.30;48.80
37456;DHT22;23316;50.718;7.328;2023-04-03T08:35:09;8.30;48.70
37456;DHT22;23316;50.718;7.328;2023-04-03T08:37:37;8.40;48.90
37456;DHT22;23316;50.718;7.328;2023-04-03T08:40:10;8.40;48.90
37456;DHT22;23316;50.718;7.328;2023-04-03T08:42:49;8.40;48.80
37456;DHT22;23316;50.718;7.328;2023-04-03T08:45:25;8.50;48.70
37456;DHT22;23316;50.718;7.328;2023-04-03T08:47:59;8.50;48.30
37456;DHT22;23316;50.718;7.328;2023-04-03T08:50:33;8.50;48.20
37456;DHT22;23316;50.718;7.328;2023-04-03T08:53:02;8.60;48.00
37456;DHT22;23316;50.718;7.328;2023-04-03T08:55:37;8.60;47.60
37456;DHT22;23316;50.718;7.328;2023-04-03T08:58:09;8.60;47.30
37456;DHT22;23316;50.718;7.328;2023-04-03T09:00:43;8.60;47.40
37456;DHT22;23316;50.718;7.328;2023-04-03T09:03:12;8.70;47.50
37456;DHT22;23316;50.718;7.328;2023-04-03T09:05:45;8.70;47.40
37456;DHT22;23316;50.718;7.328;2023-04-03T09:08:22;8.70;47.40
37456;DHT22;23316;50.718;7.328;2023-04-03T09:11:00;8.80;47.20
37456;DHT22;23316;50.718;7.328;2023-04-03T09:13:36;8.80;47.20
37456;DHT22;23316;50.718;7.328;2023-04-03T09:16:20;8.80;47.40
37456;DHT22;23316;50.718;7.328;2023-04-03T09:18:56;8.90;47.40
37456;DHT22;23316;50.718;7.328;2023-04-03T09:21:27;8.90;47.60
37456;DHT22;23316;50.718;7.328;2023-04-03T09:23:59;9.00;47.30
37456;DHT22;23316;50.718;7.328;2023-04-03T09:26:33;9.00;47.10
37456;DHT22;23316;50.718;7.328;2023-04-03T09:29:05;9.10;46.50
37456;DHT22;23316;50.718;7.328;2023-04-03T09:31:36;9.10;46.20
37456;DHT22;23316;50.718;7.328;2023-04-03T09:34:10;9.10;46.00
37456;DHT22;23316;50.718;7.328;2023-04-03T09:36:43;9.20;45.80
37456;DHT22;23316;50.718;7.328;2023-04-03T09:39:13;9.20;45.80
37456;DHT22;23316;50.718;7.328;2023-04-03T09:41:43;9.20;45.80
37456;DHT22;23316;50.718;7.328;2023-04-03T09:44:22;9.20;46.00
37456;DHT22;23316;50.718;7.328;2023-04-03T09:46:50;9.20;46.10
37456;DHT22;23316;50.718;7.328;2023-04-03T09:49:18;9.20;46.20
37456;DHT22;23316;50.718;7.328;2023-04-03T09:51:46;9.30;45.70
37456;DHT22;23316;50.718;7.328;2023-04-03T09:54:26;9.30;45.60
37456;DHT22;23316;50.718;7.328;2023-04-03T09:57:02;9.30;45.60
37456;DHT22;23316;50.718;7.328;2023-04-03T09:59:30;9.40;45.40
37456;DHT22;23316;50.718;7.328;2023-04-03T10:02:00;9.40;45.60
37456;DHT22;23316;50.718;7.328;2023-04-03T10:04:38;9.50;45.00
37456;DHT22;23316;50.718;7.328;2023-04-03T10:07:27;9.50;44.30
37456;DHT22;23316;50.718;7.328;2023-04-03T10:09:55;9.50;44.30
37456;DHT22;23316;50.718;7.328;2023-04-03T10:12:24;9.50;44.20
37456;DHT22;23316;50.718;7.328;2023-04-03T10:14:56;9.60;43.60
37456;DHT22;23316;50.718;7.328;2023-04-03T10:17:41;9.60;43.80
37456;DHT22;23316;50.718;7.328;2023-04-03T10:20:27;9.60;43.90
37456;DHT22;23316;50.718;7.328;2023-04-03T10:23:05;9.70;43.50
37456;DHT22;23316;50.718;7.328;2023-04-03T10:25:42;9.70;43.60
37456;DHT22;23316;50.718;7.328;2023-04-03T10:28:17;9.70;43.60
37456;DHT22;23316;50.718;7.328;2023-04-03T10:30:51;9.70;43.50
37456;DHT22;23316;50.718;7.328;2023-04-03T10:33:49;9.80;43.10
37456;DHT22;23316;50.718;7.328;2023-04-03T10:36:25;9.80;42.80
37456;DHT22;23316;50.718;7.328;2023-04-03T10:39:02;9.80;43.10
37456;DHT22;23316;50.718;7.328;2023-04-03T10:41:43;9.90;42.90
37456;DHT22;23316;50.718;7.328;2023-04-03T10:44:23;9.90;42.80
37456;DHT22;23316;50.718;7.328;2023-04-03T10:47:01;10.00;42.90
37456;DHT22;23316;50.718;7.328;2023-04-03T10:49:40;9.90;43.10
37456;DHT22;23316;50.718;7.328;2023-04-03T10:52:17;9.90;42.90
37456;DHT22;23316;50.718;7.328;2023-04-03T10:54:53;9.90;43.00
37456;DHT22;23316;50.718;7.328;2023-04-03T10:57:25;10.00;43.00
37456;DHT22;23316;50.718;7.328;2023-04-03T10:59:57;10.00;43.30
37456;DHT22;23316;50.718;7.328;2023-04-03T11:02:29;10.00;43.20
37456;DHT22;23316;50.718;7.328;2023-04-03T11:05:00;10.00;42.90
37456;DHT22;23316;50.718;7.328;2023-04-03T11:07:32;10.10;42.20
37456;DHT22;23316;50.718;7.328;2023-04-03T11:10:02;10.10;42.20
37456;DHT22;23316;50.718;7.328;2023-04-03T11:12:40;10.10;42.50
37456;DHT22;23316;50.718;7.328;2023-04-03T11:15:15;10.10;41.90
37456;DHT22;23316;50.718;7.328;2023-04-03T11:17:46;10.10;42.20
37456;DHT22;23316;50.718;7.328;2023-04-03T11:20:18;10.20;42.10
37456;DHT22;23316;50.718;7.328;2023-04-03T11:22:50;10.20;42.00
37456;DHT22;23316;50.718;7.328;2023-04-03T11:25:21;10.20;42.00
37456;DHT22;23316;50.718;7.328;2023-04-03T11:27:55;10.20;42.00
37456;DHT22;23316;50.718;7.328;2023-04-03T11:30:28;10.30;42.10
37456;DHT22;23316;50.718;7.328;2023-04-03T11:33:10;10.30;42.30
37456;DHT22;23316;50.718;7.328;2023-04-03T11:35:43;10.30;42.20
37456;DHT22;23316;50.718;7.328;2023-04-03T11:38:16;10.30;42.00
37456;DHT22;23316;50.718;7.328;2023-04-03T11:40:44;10.40;41.80
37456;DHT22;23316;50.718;7.328;2023-04-03T11:43:22;10.50;42.10
37456;DHT22;23316;50.718;7.328;2023-04-03T11:45:58;10.40;41.40
37456;DHT22;23316;50.718;7.328;2023-04-03T11:48:50;10.50;41.40
37456;DHT22;23316;50.718;7.328;2023-04-03T11:54:45;10.50;40.60
37456;DHT22;23316;50.718;7.328;2023-04-03T11:58:01;10.50;40.70
37456;DHT22;23316;50.718;7.328;2023-04-03T12:01:06;10.50;40.50
37456;DHT22;23316;50.718;7.328;2023-04-03T12:10:13;10.50;40.30
37456;DHT22;23316;50.718;7.328;2023-04-03T12:12:41;10.50;39.80
37456;DHT22;23316;50.718;7.328;2023-04-03T12:15:22;10.60;39.50
37456;DHT22;23316;50.718;7.328;2023-04-03T12:17:51;10.60;39.30
37456;DHT22;23316;50.718;7.328;2023-04-03T12:20:53;10.60;39.70
37456;DHT22;23316;50.718;7.328;2023-04-03T12:23:26;10.60;39.50
37456;DHT22;23316;50.718;7.328;2023-04-03T12:26:02;10.60;39.50
37456;DHT22;23316;50.718;7.328;2023-04-03T12:28:37;10.60;39.10
37456;DHT22;23316;50.718;7.328;2023-04-03T12:31:08;10.60;38.90
37456;DHT22;23316;50.718;7.328;2023-04-03T12:33:51;10.60;39.30
37456;DHT22;23316;50.718;7.328;2023-04-03T12:36:30;10.60;39.10
37456;DHT22;23316;50.718;7.328;2023-04-03T12:39:16;10.60;39.30
37456;DHT22;23316;50.718;7.328;2023-04-03T12:41:53;10.60;39.00
37456;DHT22;23316;50.718;7.328;2023-04-03T12:44:37;10.60;39.00
37456;DHT22;23316;50.718;7.328;2023-04-03T12:47:21;10.70;38.40
37456;DHT22;23316;50.718;7.328;2023-04-03T12:49:52;10.70;39.10
37456;DHT22;23316;50.718;7.328;2023-04-03T12:52:30;10.70;39.30
37456;DHT22;23316;50.718;7.328;2023-04-03T12:55:00;10.80;39.10
37456;DHT22;23316;50.718;7.328;2023-04-03T12:57:30;10.80;39.30
37456;DHT22;23316;50.718;7.328;2023-04-03T12:59:58;10.80;39.40
37456;DHT22;23316;50.718;7.328;2023-04-03T13:02:27;10.90;39.40
37456;DHT22;23316;50.718;7.328;2023-04-03T13:04:58;10.90;39.60
37456;DHT22;23316;50.718;7.328;2023-04-03T13:07:28;10.90;39.20
37456;DHT22;23316;50.718;7.328;2023-04-03T13:09:59;10.90;39.10
37456;DHT22;23316;50.718;7.328;2023-04-03T13:12:27;10.90;39.00
37456;DHT22;23316;50.718;7.328;2023-04-03T13:14:56;10.90;39.50
37456;DHT22;23316;50.718;7.328;2023-04-03T13:17:26;10.90;39.40
37456;DHT22;23316;50.718;7.328;2023-04-03T13:19:55;11.00;39.40
37456;DHT22;23316;50.718;7.328;2023-04-03T13:22:38;11.00;39.30
37456;DHT22;23316;50.718;7.328;2023-04-03T13:25:12;11.00;39.50
37456;DHT22;23316;50.718;7.328;2023-04-03T13:27:40;11.00;39.60
37456;DHT22;23316;50.718;7.328;2023-04-03T13:30:20;11.00;39.50
37456;DHT22;23316;50.718;7.328;2023-04-03T13:32:48;11.10;39.20
37456;DHT22;23316;50.718;7.328;2023-04-03T13:35:32;11.10;39.30
37456;DHT22;23316;50.718;7.328;2023-04-03T13:38:04;11.10;39.30
37456;DHT22;23316;50.718;7.328;2023-04-03T13:40:32;11.10;39.00
37456;DHT22;23316;50.718;7.328;2023-04-03T13:43:02;11.10;38.70
37456;DHT22;23316;50.718;7.328;2023-04-03T13:45:30;11.10;39.00
37456;DHT22;23316;50.718;7.328;2023-04-03T13:48:10;11.10;38.80
37456;DHT22;23316;50.718;7.328;2023-04-03T13:50:54;11.10;38.90
37456;DHT22;23316;50.718;7.328;2023-04-03T13:53:23;11.10;38.90
37456;DHT22;23316;50.718;7.328;2023-04-03T13:55:57;11.20;39.30
37456;DHT22;23316;50.718;7.328;2023-04-03T13:58:27;11.20;39.10
37456;DHT22;23316;50.718;7.328;2023-04-03T14:00:55;11.20;39.30
37456;DHT22;23316;50.718;7.328;2023-04-03T14:03:24;11.20;39.10
37456;DHT22;23316;50.718;7.328;2023-04-03T14:05:56;11.20;39.20
37456;DHT22;23316;50.718;7.328;2023-04-03T14:08:23;11.20;39.30
37456;DHT22;23316;50.718;7.328;2023-04-03T14:10:51;11.30;39.60
37456;DHT22;23316;50.718;7.328;2023-04-03T14:13:19;11.30;39.70
37456;DHT22;23316;50.718;7.328;2023-04-03T14:15:47;11.30;39.50
37456;DHT22;23316;50.718;7.328;2023-04-03T14:18:21;11.30;39.40
37456;DHT22;23316;50.718;7.328;2023-04-03T14:20:48;11.40;38.70
37456;DHT22;23316;50.718;7.328;2023-04-03T14:23:17;11.40;38.60
37456;DHT22;23316;50.718;7.328;2023-04-03T14:25:44;11.40;38.20
37456;DHT22;23316;50.718;7.328;2023-04-03T14:28:16;11.40;38.00
37456;DHT22;23316;50.718;7.328;2023-04-03T14:30:44;11.40;37.80
37456;DHT22;23316;50.718;7.328;2023-04-03T14:33:15;11.40;37.70
37456;DHT22;23316;50.718;7.328;2023-04-03T14:35:43;11.40;37.70
37456;DHT22;23316;50.718;7.328;2023-04-03T14:38:23;11.40;38.00
37456;DHT22;23316;50.718;7.328;2023-04-03T14:40:52;11.40;38.00
37456;DHT22;23316;50.718;7.328;2023-04-03T14:43:19;11.40;37.90
37456;DHT22;23316;50.718;7.328;2023-04-03T14:45:47;11.40;37.90
37456;DHT22;23316;50.718;7.328;2023-04-03T14:48:18;11.50;38.00
37456;DHT22;23316;50.718;7.328;2023-04-03T14:50:46;11.40;37.90
37456;DHT22;23316;50.718;7.328;2023-04-03T14:53:14;11.40;37.90
37456;DHT22;23316;50.718;7.328;2023-04-03T14:55:46;11.40;37.80
37456;DHT22;23316;50.718;7.328;2023-04-03T14:58:15;11.50;37.70
37456;DHT22;23316;50.718;7.328;2023-04-03T15:00:43;11.50;37.90
37456;DHT22;23316;50.718;7.328;2023-04-03T15:03:15;11.50;38.00
37456;DHT22;23316;50.718;7.328;2023-04-03T15:05:44;11.50;38.00
37456;DHT22;23316;50.718;7.328;2023-04-03T15:08:19;11.50;38.00
37456;DHT22;23316;50.718;7.328;2023-04-03T15:10:49;11.60;37.30
37456;DHT22;23316;50.718;7.328;2023-04-03T15:13:18;11.60;37.50
37456;DHT22;23316;50.718;7.328;2023-04-03T15:15:46;11.60;37.50
37456;DHT22;23316;50.718;7.328;2023-04-03T15:18:17;11.60;37.50
37456;DHT22;23316;50.718;7.328;2023-04-03T15:20:46;11.60;37.50
37456;DHT22;23316;50.718;7.328;2023-04-03T15:23:14;11.60;37.50
37456;DHT22;23316;50.718;7.328;2023-04-03T15:25:43;11.70;37.70
37456;DHT22;23316;50.718;7.328;2023-04-03T15:28:18;11.70;37.30
37456;DHT22;23316;50.718;7.328;2023-04-03T15:30:46;11.70;37.20
37456;DHT22;23316;50.718;7.328;2023-04-03T15:33:13;11.70;37.50
37456;DHT22;23316;50.718;7.328;2023-04-03T15:35:41;11.70;37.40
37456;DHT22;23316;50.718;7.328;2023-04-03T15:38:08;11.70;37.30
37456;DHT22;23316;50.718;7.328;2023-04-03T15:40:37;11.70;37.60
37456;DHT22;23316;50.718;7.328;2023-04-03T15:43:05;11.70;37.20
37456;DHT22;23316;50.718;7.328;2023-04-03T15:45:35;11.70;37.10
37456;DHT22;23316;50.718;7.328;2023-04-03T15:48:03;11.70;36.90
37456;DHT22;23316;50.718;7.328;2023-04-03T15:50:32;11.70;36.90
37456;DHT22;23316;50.718;7.328;2023-04-03T15:52:59;11.70;36.80
37456;DHT22;23316;50.718;7.328;2023-04-03T15:55:29;11.70;36.80
37456;DHT22;23316;50.718;7.328;2023-04-03T15:57:57;11.70;36.80
37456;DHT22;23316;50.718;7.328;2023-04-03T16:00:25;11.60;37.30
37456;DHT22;23316;50.718;7.328;2023-04-03T16:02:58;11.60;36.80
37456;DHT22;23316;50.718;7.328;2023-04-03T16:05:27;11.60;36.90
37456;DHT22;23316;50.718;7.328;2023-04-03T16:07:54;11.60;37.00
37456;DHT22;23316;50.718;7.328;2023-04-03T16:10:22;11.70;36.90
37456;DHT22;23316;50.718;7.328;2023-04-03T16:12:49;11.60;36.90